My Meet Scores
Karlene Grosche, Flipstar Gymnastics Academy - MyMeetScores.com
Top100 | Top Teams | Upcoming Meets | Completed Meets | Latest | Add Scores | Help| Support | Bookmark and Share

Karlene Grosche, Flipstar Gymnastics Academy
Personal Bests
LevelVault BarsBeamFloorAA
39.5259.050 9.0759.37536.850
48.6759.100 9.2009.05035.550
68.5758.300 8.7259.37534.150
Meet Scores
Date Meet Team Session Level Division Vault Bars Beam Floor AA
2020-02-28 MEGA Spring Invite 2020 Flipstar Gymnastics Academy 2 6 Junior 8.025 22 8.300 19T 8.075 23 8.875 17T 33.275 22
2020-02-21 Kinetic Classic Flipstar Gymnastics Academy 01 6 Middle 8.325 52T 8.050 42 8.300 50T 9.050 41T 33.725 50
2020-02-07 IGI Chicago Style Meet Flipstar Gymnastics Academy 213 6 B 8.000 20 8.050 18 8.250 18 9.050 19T 33.350 19
2020-01-30 Circle of Stars Flipstar Gymnastics Center B09 6 Jr C 8.250 11 7.650 13 8.725 12 8.825 9 33.450 12
2020-01-24 King Arthur Invitational Flipstar Gymnastics Academy 2 6 SR 8.300 11 7.400 11T 8.325 11 9.075 8 33.100 12
2019-12-07 Home for the Holidays 2019 Flipstar Gymnastics Academy 6 6 Middle 8.575 9 7.950 10 8.250 10 9.375 4 34.150 10
2019-03-22 Illinois Gymnastics State Championships Flipstar Gymnastics Academy 4 4 JR F 8.550 18T 9.100 12T 9.025 14T 8.875 16 35.550 15
2019-03-01 2019 MEGA Spring Invite Flipstar Gymnastics Academy All 4 All Ages 8.100 111T 8.500 80T 8.600 88 8.600 99T 33.800 98
2019-02-23 Kinetic Classic 2019 Flipstar Gymnastics Academy 1 4 Older 8.225 36 8.950 21T 8.625 32 8.775 23 34.575 30T
2019-02-08 Midwest Twisters Harley Meet Womens Flipstar Gymnastics Academy T09 4 10b 8.600 6T 8.700 6T 8.825 8 8.700 9 34.825 7
2019-01-25 King Arthur Invitational Flipstar Gymnastics Academy 1 4 Sr B 7.900 12 8.775 8 8.500 8 8.800 9 33.975 10
2019-01-11 Circle of Stars Gymnastics Flipstar Gymnastics Academy C06 4 Junior C 8.325 16 8.725 12 9.025 12 9.050 10 35.125 12
2018-12-07 Horton Invite Flipstar Gymnastics Academy 2 4 Jr B 8.375 15 9.100 8 8.550 12T 8.700 15 34.725 12
2018-03-08 Level 4 & 5 State Flipstar Gymnastics Academy All 4 Yh E 8.675 14T 8.150 24 9.200 15T 8.675 20 34.700 18
2018-02-23 Kinetic Classic Flipstar Gymnastics Academy 7 4 Middle 8.050 65T 8.200 71 8.225 83 8.525 71 33.000 78
2018-02-16 Big Classic Flipstar Gymnastics Academy 7B 4 Child C 8.475 7T 8.700 10 9.125 10 8.825 11 35.125 9
2018-02-09 IGI Chicago Style Gymnastics Meet Flipstar Gymnastics Academy 2 4 211 Lake Shore Dr L4 B 7.900 21 7.950 21 7.800 22 8.400 16 32.050 21
2018-01-26 King Arthur Invitational Flipstar Gymnastics Academy 2 4 Jr B 8.000 11 8.050 12 8.675 10 8.500 12T 33.225 12
2018-01-19 Sand Dollar/ Whitlow Invitational Flipstar Gymnastics Academy E06 4 Jr B 8.400 11T 7.650 15 8.800 12 7.875 16 32.725 15
2017-12-08 Horton Invite At IWU Shirk Center Flipstar Gymnastics Academy All 4 Ch B 8.375 16 8.125 18 8.875 16 8.850 14T 34.225 17
2017-11-17 SCGA Classic Flipstar Gymnastics Academy 2 4 JrB 8.300 8 8.000 12 8.650 9 8.450 9 33.400 8
2017-11-10 Illinois NAWGJ Judges Cup 2017 Flipstar Gymnastics Academy G3 4 All Ages 8.000 49T 7.600 60T 8.525 39T 8.000 57T 32.125 53
2017-03-30 2017 Illinois Level 3 & 5 State Flipstar Gymnastics Academy All 3 Jr A 9.525 8 9.050 17 9.075 11 9.200 9T 36.850 11
2017-02-24 Kinetic Classic Flipstar Gymnastics Academy 4,5,6,7 3 All Ages 9.025 71T 8.500 79T 8.875 49T 9.100 36T 35.500 65T
2017-02-17 Big Classic Flipstar Gymnastics Academy B 3 Child C 9.000 22T 8.750 23 8.425 27 9.275 14T 35.450 24
2017-02-10 IGI Chicago Style Gymnastics Meet Flipstar Gymnastics Academy 222L 3 JrC 9.125 13 9.025 14 8.925 6 9.150 7 36.225 10
2016-12-09 Horton Invitational Flipstar Gymnastics Academy 8 3 JrE 9.200 6 8.350 11 7.900 16 9.000 7 34.450 11
2016-11-11 2016 Illinois Judges Cup Flipstar Gymnastics Academy B5 3 8 Year Old 9.100 7T 8.900 3 7.800 10 9.375 1 35.175 5
Get your scores on
a t-shirt, pin, or hoodie

www.lazysuits.com